createdAt,value
2022-07-30T00:00:49.968Z,99023.25
2022-07-30T00:03:36.336Z,99018.09
2022-07-30T00:06:22.810Z,99028.56
2022-07-30T00:09:09.513Z,99016.56
2022-07-30T00:11:55.970Z,99031.13
2022-07-30T00:14:42.139Z,99020.34
2022-07-30T00:17:28.672Z,99031.41
2022-07-30T00:20:15.376Z,99022.16
2022-07-30T00:23:04.712Z,99044.34
2022-07-30T00:25:51.063Z,99025.63
2022-07-30T00:28:37.378Z,99031.28
2022-07-30T00:31:23.563Z,99030.56
2022-07-30T00:34:10.067Z,99031.41
2022-07-30T00:36:56.786Z,99040.66
2022-07-30T00:39:43.435Z,99004.34
2022-07-30T00:42:38.757Z,99046.09
2022-07-30T00:45:25.110Z,99027.31
2022-07-30T00:48:13.545Z,99029.81
2022-07-30T00:51:00.210Z,99029.81
2022-07-30T00:53:46.435Z,99004.31
2022-07-30T00:56:36.149Z,99013.66
2022-07-30T00:59:22.763Z,99012.03
2022-07-30T01:02:09.604Z,99031.50
2022-07-30T01:04:57.418Z,99017.19
2022-07-30T01:07:44.291Z,99021.66
2022-07-30T01:10:30.663Z,99010.66
2022-07-30T01:13:17.555Z,99020.91
2022-07-30T01:16:04.419Z,99031.28
2022-07-30T01:19:12.614Z,99034.75
2022-07-30T01:22:43.974Z,99041.63
2022-07-30T01:25:30.861Z,99047.81
2022-07-30T01:28:23.272Z,99020.34
2022-07-30T01:31:13.719Z,98997.88
2022-07-30T01:34:02.049Z,99036.72
2022-07-30T01:36:50.465Z,99019.72
2022-07-30T01:39:38.188Z,99045.63
2022-07-30T01:42:28.690Z,99019.06
2022-07-30T01:45:15.929Z,99009.91
2022-07-30T01:48:05.095Z,99020.13
2022-07-30T01:50:54.966Z,99006.56
2022-07-30T01:53:44.351Z,99043.38
2022-07-30T01:56:32.086Z,99030.75
2022-07-30T01:59:22.920Z,99022.25
2022-07-30T02:02:09.307Z,99027.88
2022-07-30T02:04:56.114Z,99021.88
2022-07-30T02:07:56.230Z,99041.66
2022-07-30T02:10:49.268Z,99027.28
2022-07-30T02:13:52.663Z,99023.16
2022-07-30T02:16:43.007Z,99046.34
2022-07-30T02:19:41.956Z,99036.16
2022-07-30T02:22:36.575Z,99027.81
2022-07-30T02:25:23.793Z,99032.28
2022-07-30T02:28:14.622Z,99058.16
2022-07-30T02:31:02.741Z,99060.09
2022-07-30T02:34:05.562Z,99061.94
2022-07-30T02:36:53.958Z,99044.09
2022-07-30T02:39:42.957Z,99051.81
2022-07-30T02:42:31.770Z,99072.44
2022-07-30T02:45:19.033Z,99056.22
2022-07-30T02:48:08.986Z,99078.53
2022-07-30T02:51:00.140Z,99075.84
2022-07-30T02:53:48.534Z,99083.75
2022-07-30T02:56:36.849Z,99059.38
2022-07-30T02:59:24.978Z,99058.72
2022-07-30T03:02:14.625Z,99089.72
2022-07-30T03:05:04.276Z,99060.50
2022-07-30T03:07:52.547Z,99091.53
2022-07-30T03:10:41.683Z,99086.41
2022-07-30T03:13:28.409Z,99066.78
2022-07-30T03:16:18.800Z,99042.13
2022-07-30T03:19:09.619Z,99027.66
2022-07-30T03:21:57.047Z,99093.28
2022-07-30T03:24:45.709Z,99080.50
2022-07-30T03:27:32.891Z,99077.22
2022-07-30T03:30:19.439Z,99078.22
2022-07-30T03:33:06.909Z,99064.53
2022-07-30T03:35:54.081Z,99076.72
2022-07-30T03:38:42.525Z,99110.41
2022-07-30T03:41:29.544Z,99048.59
2022-07-30T03:44:16.372Z,99082.03
2022-07-30T03:47:05.657Z,99108.69
2022-07-30T03:49:58.763Z,99083.03
2022-07-30T03:52:46.105Z,99105.50
2022-07-30T03:55:36.557Z,99095.19
2022-07-30T03:59:01.907Z,99097.00
2022-07-30T04:01:48.628Z,99123.03
2022-07-30T04:04:44.383Z,99134.25
2022-07-30T04:07:30.697Z,99078.38
2022-07-30T04:10:17.431Z,99119.66
2022-07-30T04:13:26.617Z,99105.91
2022-07-30T04:16:39.713Z,99147.19
2022-07-30T04:19:31.521Z,99135.16
2022-07-30T04:22:23.990Z,99155.91
2022-07-30T04:25:11.887Z,99136.03
2022-07-30T04:28:11.797Z,99155.47
2022-07-30T04:30:58.631Z,99120.97
2022-07-30T04:33:47.883Z,99081.16
2022-07-30T04:36:39.389Z,99154.00
2022-07-30T04:39:25.831Z,99146.22
2022-07-30T04:42:12.687Z,99158.06
2022-07-30T04:45:00.193Z,99115.78
2022-07-30T04:47:49.567Z,99171.38
2022-07-30T04:50:43.320Z,99172.91
2022-07-30T04:53:34.245Z,99177.66
2022-07-30T04:56:22.752Z,99183.00
2022-07-30T04:59:11.123Z,99160.25
2022-07-30T05:01:59.514Z,99175.44
2022-07-30T05:04:47.303Z,99178.28
2022-07-30T05:07:35.026Z,99158.03
2022-07-30T05:10:21.999Z,99155.50
2022-07-30T05:13:14.057Z,99185.00
2022-07-30T05:16:01.303Z,99161.03
2022-07-30T05:18:47.834Z,99179.66
2022-07-30T05:21:34.545Z,99170.91
2022-07-30T05:24:21.990Z,99171.06
2022-07-30T05:27:14.594Z,99155.84
2022-07-30T05:30:00.960Z,99166.25
2022-07-30T05:32:48.934Z,99175.16
2022-07-30T05:35:36.326Z,99178.84
2022-07-30T05:38:24.651Z,99170.38
2022-07-30T05:41:37.791Z,99154.09
2022-07-30T05:44:28.778Z,99150.13
2022-07-30T05:47:15.273Z,99165.19
2022-07-30T05:50:05.242Z,99157.34
2022-07-30T05:52:52.014Z,99120.09
2022-07-30T05:55:58.251Z,99193.28
2022-07-30T05:59:11.930Z,99173.94
2022-07-30T06:02:17.339Z,99161.25
2022-07-30T06:05:21.037Z,99156.13
2022-07-30T06:08:08.678Z,99173.22
2022-07-30T06:10:55.006Z,99191.06
2022-07-30T06:13:41.455Z,99165.16
2022-07-30T06:16:28.711Z,99145.03
2022-07-30T06:19:19.485Z,99173.28
2022-07-30T06:22:07.263Z,99167.53
2022-07-30T06:24:59.409Z,99175.31
2022-07-30T06:27:46.458Z,99172.25
2022-07-30T06:30:34.264Z,99170.56
2022-07-30T06:33:20.739Z,99190.41
2022-07-30T06:36:07.543Z,99195.28
2022-07-30T06:39:06.822Z,99155.25
2022-07-30T06:42:12.053Z,99171.19
2022-07-30T06:45:21.357Z,99204.09
2022-07-30T06:48:26.786Z,99199.13
2022-07-30T06:51:13.029Z,99173.03
2022-07-30T06:54:00.282Z,99162.75
2022-07-30T06:56:55.722Z,99219.44
2022-07-30T06:59:57.374Z,99200.34
2022-07-30T07:03:07.486Z,99214.72
2022-07-30T07:05:56.905Z,99200.97
2022-07-30T07:08:43.438Z,99180.63
2022-07-30T07:11:32.929Z,99227.19
2022-07-30T07:14:23.727Z,99208.69
2022-07-30T07:17:11.429Z,99213.44
2022-07-30T07:20:16.215Z,99218.75
2022-07-30T07:23:12.376Z,99228.63
2022-07-30T07:26:00.546Z,99220.63
2022-07-30T07:28:47.383Z,99231.63
2022-07-30T07:32:05.500Z,99234.13
2022-07-30T07:34:40.179Z,99221.69
2022-07-30T07:37:28.091Z,99197.63
2022-07-30T07:40:15.638Z,99215.47
2022-07-30T07:43:03.238Z,99216.84
2022-07-30T07:45:51.262Z,99210.81
2022-07-30T07:48:39.429Z,99212.25
2022-07-30T07:51:47.300Z,99201.41
2022-07-30T07:54:36.420Z,99220.47
2022-07-30T07:57:24.942Z,99213.53
2022-07-30T08:00:14.821Z,99238.94
2022-07-30T08:03:06.564Z,99214.59
2022-07-30T08:05:59.036Z,99190.38
2022-07-30T08:09:07.222Z,99217.38
2022-07-30T08:12:17.952Z,99199.19
2022-07-30T08:15:23.105Z,99230.19
2022-07-30T08:18:28.218Z,99217.25
2022-07-30T08:21:28.558Z,99211.94
2022-07-30T08:24:14.810Z,99202.66
2022-07-30T08:27:01.257Z,99226.16
2022-07-30T08:29:48.112Z,99229.09
2022-07-30T08:32:35.302Z,99196.63
2022-07-30T08:35:23.764Z,99199.56
2022-07-30T08:38:13.250Z,99236.22
2022-07-30T08:40:59.550Z,99209.47
2022-07-30T08:43:49.913Z,99187.63
2022-07-30T08:46:47.365Z,99217.34
2022-07-30T08:49:48.988Z,99217.84
2022-07-30T08:52:38.026Z,99231.59
2022-07-30T08:55:26.113Z,99223.50
2022-07-30T08:58:29.162Z,99230.66
2022-07-30T09:01:15.449Z,99223.59
2022-07-30T09:04:02.579Z,99209.50
2022-07-30T09:06:49.883Z,99227.75
2022-07-30T09:09:36.346Z,99196.00
2022-07-30T09:12:41.147Z,99213.75
2022-07-30T09:15:28.939Z,99220.03
2022-07-30T09:18:27.878Z,99205.63
2022-07-30T09:21:16.009Z,99242.78
2022-07-30T09:24:09.924Z,99237.47
2022-07-30T09:27:15.258Z,99225.28
2022-07-30T09:30:50.651Z,99224.84
2022-07-30T09:33:55.522Z,99186.50
2022-07-30T09:37:03.409Z,99228.38
2022-07-30T09:40:18.466Z,99221.16
2022-07-30T09:43:30.790Z,99195.56
2022-07-30T09:46:52.739Z,99206.94
2022-07-30T09:50:08.069Z,99227.25
2022-07-30T09:52:55.563Z,99222.97
2022-07-30T09:55:45.087Z,99203.66
2022-07-30T09:58:45.350Z,99227.50
2022-07-30T10:01:56.238Z,99220.13
2022-07-30T10:05:15.026Z,99210.34
2022-07-30T10:08:09.142Z,99199.84
2022-07-30T10:10:56.176Z,99188.97
2022-07-30T10:13:45.640Z,99212.81
2022-07-30T10:16:32.760Z,99216.06
2022-07-30T10:19:23.438Z,99175.31
2022-07-30T10:22:55.324Z,99184.13
2022-07-30T10:26:03.611Z,99210.63
2022-07-30T10:29:09.375Z,99209.84
2022-07-30T10:32:00.749Z,99187.84
2022-07-30T10:34:47.996Z,99189.19
2022-07-30T10:37:37.141Z,99208.34
2022-07-30T10:40:35.998Z,99190.75
2022-07-30T10:43:40.414Z,99209.50
2022-07-30T10:46:36.136Z,99207.94
2022-07-30T10:49:23.051Z,99190.28
2022-07-30T10:52:11.005Z,99183.28
2022-07-30T10:54:58.590Z,99169.72
2022-07-30T10:58:07.778Z,99186.75
2022-07-30T11:00:54.390Z,99209.41
2022-07-30T11:03:45.081Z,99215.16
2022-07-30T11:06:31.570Z,99204.22
2022-07-30T11:09:40.795Z,99208.00
2022-07-30T11:12:53.027Z,99203.34
2022-07-30T11:15:56.236Z,99207.88
2022-07-30T11:19:56.923Z,99208.78
2022-07-30T11:22:29.627Z,99162.50
2022-07-30T11:25:22.455Z,99200.00
2022-07-30T11:28:40.545Z,99201.94
2022-07-30T11:32:07.422Z,99188.91
2022-07-30T11:34:41.479Z,99158.50
2022-07-30T11:37:32.389Z,99173.47
2022-07-30T11:40:26.253Z,99182.44
2022-07-30T11:43:35.765Z,99180.09
2022-07-30T11:46:28.879Z,99170.13
2022-07-30T11:49:16.963Z,99162.66
2022-07-30T11:52:04.056Z,99183.97
2022-07-30T11:54:52.994Z,99156.81
2022-07-30T11:57:40.559Z,99181.44
2022-07-30T12:00:35.318Z,99176.09
2022-07-30T12:03:23.745Z,99169.13
2022-07-30T12:06:18.077Z,99174.25
2022-07-30T12:09:04.532Z,99146.25
2022-07-30T12:11:50.779Z,99147.88
2022-07-30T12:14:38.870Z,99128.63
2022-07-30T12:17:41.372Z,99163.78
2022-07-30T12:20:28.842Z,99131.28
2022-07-30T12:23:15.642Z,99116.38
2022-07-30T12:26:08.706Z,99140.00
2022-07-30T12:29:00.559Z,99159.81
2022-07-30T12:31:46.823Z,99122.50
2022-07-30T12:34:33.721Z,99149.94
2022-07-30T12:37:20.190Z,99131.34
2022-07-30T12:40:15.040Z,99166.06
2022-07-30T12:43:01.747Z,99138.97
2022-07-30T12:45:51.783Z,99150.00
2022-07-30T12:48:53.800Z,99162.81
2022-07-30T12:51:52.417Z,99148.94
2022-07-30T12:55:02.836Z,99141.34
2022-07-30T12:57:52.351Z,99149.41
2022-07-30T13:00:45.004Z,99145.97
2022-07-30T13:03:39.242Z,99114.78
2022-07-30T13:06:25.945Z,99099.97
2022-07-30T13:09:21.905Z,99088.53
2022-07-30T13:12:12.549Z,99119.19
2022-07-30T13:14:59.277Z,99079.97
2022-07-30T13:17:46.158Z,99100.88
2022-07-30T13:20:32.615Z,99103.97
2022-07-30T13:23:19.151Z,99093.91
2022-07-30T13:26:07.109Z,99081.09
2022-07-30T13:28:53.422Z,99090.34
2022-07-30T13:31:42.907Z,99100.81
2022-07-30T13:34:29.638Z,99098.03
2022-07-30T13:37:15.798Z,99077.19
2022-07-30T13:40:02.431Z,99097.31
2022-07-30T13:42:49.088Z,99101.19
2022-07-30T13:45:35.925Z,99097.19
2022-07-30T13:48:23.009Z,99094.84
2022-07-30T13:51:09.340Z,99093.78
2022-07-30T13:53:55.639Z,99059.34
2022-07-30T13:56:41.931Z,99047.31
2022-07-30T13:59:28.145Z,99065.50
2022-07-30T14:02:14.653Z,99055.09
2022-07-30T14:05:06.884Z,99080.09
2022-07-30T14:07:53.416Z,99068.81
2022-07-30T14:10:40.183Z,99064.56
2022-07-30T14:13:26.630Z,99038.66
2022-07-30T14:16:35.302Z,99061.03
2022-07-30T14:19:23.318Z,99062.00
2022-07-30T14:22:10.925Z,99039.00
2022-07-30T14:24:57.260Z,99044.69
2022-07-30T14:27:43.606Z,99056.00
2022-07-30T14:30:32.022Z,99043.88
2022-07-30T14:33:18.640Z,99056.97
2022-07-30T14:36:05.100Z,99044.53
2022-07-30T14:38:54.014Z,99042.00
2022-07-30T14:41:43.206Z,99056.22
2022-07-30T14:44:29.967Z,99063.09
2022-07-30T14:47:16.773Z,99061.03
2022-07-30T14:50:03.671Z,99039.41
2022-07-30T14:52:50.425Z,99045.31
2022-07-30T14:55:36.608Z,99054.44
2022-07-30T14:58:23.032Z,99044.88
2022-07-30T15:01:15.559Z,99059.44
2022-07-30T15:04:03.507Z,99045.03
2022-07-30T15:06:50.194Z,99044.19
2022-07-30T15:09:36.579Z,99044.41
2022-07-30T15:12:26.619Z,99050.31
2022-07-30T15:15:14.066Z,99030.94
2022-07-30T15:18:01.487Z,99032.53
2022-07-30T15:20:47.886Z,99030.22
2022-07-30T15:23:34.141Z,99058.56
2022-07-30T15:26:20.397Z,99054.84
2022-07-30T15:29:10.345Z,99044.19
2022-07-30T15:32:03.126Z,99046.22
2022-07-30T15:34:49.791Z,99011.38
2022-07-30T15:37:35.989Z,99054.44
2022-07-30T15:40:22.474Z,99039.00
2022-07-30T15:43:10.264Z,99040.28
2022-07-30T15:45:56.817Z,99019.69
2022-07-30T15:48:43.026Z,99035.72
2022-07-30T15:51:31.298Z,99016.78
2022-07-30T15:54:22.523Z,99019.47
2022-07-30T15:57:09.250Z,99016.81
2022-07-30T15:59:55.646Z,99009.03
2022-07-30T16:02:43.454Z,99023.31
2022-07-30T16:05:52.256Z,99029.94
2022-07-30T16:08:36.232Z,99008.72
2022-07-30T16:11:22.460Z,99018.47
2022-07-30T16:14:09.311Z,99030.81
2022-07-30T16:16:55.585Z,98988.94
2022-07-30T16:19:44.751Z,99020.47
2022-07-30T16:22:32.182Z,99002.88
2022-07-30T16:25:18.776Z,99021.75
2022-07-30T16:28:04.996Z,99006.69
2022-07-30T16:30:51.801Z,99009.91
2022-07-30T16:33:38.393Z,99037.53
2022-07-30T16:36:24.675Z,98996.38
2022-07-30T16:39:11.238Z,99006.81
2022-07-30T16:41:57.994Z,99023.84
2022-07-30T16:44:44.233Z,99038.22
2022-07-30T16:47:33.739Z,99019.06
2022-07-30T16:50:21.012Z,99015.56
2022-07-30T16:53:13.292Z,99014.94
2022-07-30T16:56:00.678Z,99027.22
2022-07-30T16:58:46.786Z,99004.31
2022-07-30T17:01:33.934Z,99014.69
2022-07-30T17:04:20.373Z,99033.84
2022-07-30T17:07:06.489Z,99023.84
2022-07-30T17:09:53.563Z,99028.72
2022-07-30T17:12:40.180Z,99010.03
2022-07-30T17:15:32.458Z,99009.19
2022-07-30T17:18:19.632Z,99010.03
2022-07-30T17:21:06.067Z,99030.22
2022-07-30T17:23:52.790Z,99036.59
2022-07-30T17:26:42.794Z,99010.47
2022-07-30T17:29:29.696Z,98995.72
2022-07-30T17:32:16.098Z,99040.66
2022-07-30T17:35:02.401Z,99017.25
2022-07-30T17:37:48.654Z,99021.84
2022-07-30T17:40:34.941Z,99048.09
2022-07-30T17:43:21.671Z,99022.31
2022-07-30T17:46:07.925Z,99029.56
2022-07-30T17:48:54.246Z,98998.50
2022-07-30T17:51:40.731Z,99028.66
2022-07-30T17:54:27.353Z,99024.41
2022-07-30T17:57:15.126Z,99055.22
2022-07-30T18:00:01.616Z,99061.69
2022-07-30T18:02:50.618Z,99043.78
2022-07-30T18:05:36.882Z,99047.03
2022-07-30T18:08:24.047Z,99052.72
2022-07-30T18:11:13.620Z,99064.88
2022-07-30T18:14:00.252Z,99069.63
2022-07-30T18:16:46.822Z,99037.47
2022-07-30T18:19:33.241Z,99036.16
2022-07-30T18:22:29.501Z,99033.34
2022-07-30T18:25:19.203Z,99058.69
2022-07-30T18:28:05.912Z,99082.06
2022-07-30T18:30:52.313Z,99057.38
2022-07-30T18:33:38.602Z,99078.22
2022-07-30T18:36:25.279Z,99052.44
2022-07-30T18:39:11.525Z,99085.66
2022-07-30T18:41:58.250Z,99071.16
2022-07-30T18:44:44.465Z,99098.06
2022-07-30T18:47:30.881Z,99078.75
2022-07-30T18:50:18.423Z,99102.84
2022-07-30T18:53:15.670Z,99091.41
2022-07-30T18:56:02.394Z,99112.25
2022-07-30T18:58:48.622Z,99087.25
2022-07-30T19:01:34.915Z,99103.34
2022-07-30T19:04:21.627Z,99088.16
2022-07-30T19:07:08.276Z,99111.38
2022-07-30T19:09:55.728Z,99113.81
2022-07-30T19:12:42.224Z,99082.75
2022-07-30T19:15:29.535Z,99116.38
2022-07-30T19:18:16.391Z,99112.22
2022-07-30T19:21:03.879Z,99126.69
2022-07-30T19:23:50.263Z,99123.75
2022-07-30T19:26:38.828Z,99116.00
2022-07-30T19:29:25.370Z,99139.66
2022-07-30T19:32:11.892Z,99117.00
2022-07-30T19:34:58.429Z,99146.25
2022-07-30T19:37:44.927Z,99121.41
2022-07-30T19:40:31.982Z,99157.63
2022-07-30T19:43:18.175Z,99155.41
2022-07-30T19:46:10.599Z,99141.56
2022-07-30T19:48:57.612Z,99136.00
2022-07-30T19:52:11.197Z,99150.31
2022-07-30T19:54:50.655Z,99133.00
2022-07-30T19:57:45.605Z,99144.97
2022-07-30T20:00:40.552Z,99158.78
2022-07-30T20:03:34.942Z,99149.75
2022-07-30T20:06:22.079Z,99162.34
2022-07-30T20:09:12.566Z,99160.53
2022-07-30T20:12:02.574Z,99190.91
2022-07-30T20:14:49.353Z,99167.53
2022-07-30T20:17:35.735Z,99188.81
2022-07-30T20:20:26.334Z,99186.94
2022-07-30T20:23:12.899Z,99165.38
2022-07-30T20:25:59.418Z,99180.25
2022-07-30T20:28:52.309Z,99168.78
2022-07-30T20:31:39.195Z,99172.59
2022-07-30T20:34:30.692Z,99167.84
2022-07-30T20:37:22.624Z,99182.38
2022-07-30T20:40:09.606Z,99180.31
2022-07-30T20:42:56.241Z,99203.06
2022-07-30T20:45:43.019Z,99174.78
2022-07-30T20:48:34.701Z,99199.13
2022-07-30T20:51:21.867Z,99188.19
2022-07-30T20:54:20.083Z,99206.56
2022-07-30T20:57:08.284Z,99218.31
2022-07-30T21:00:01.974Z,99196.00
2022-07-30T21:02:50.203Z,99195.56
2022-07-30T21:05:38.301Z,99191.78
2022-07-30T21:08:25.541Z,99204.16
2022-07-30T21:11:12.852Z,99212.69
2022-07-30T21:14:00.950Z,99210.59
2022-07-30T21:16:48.065Z,99193.97
2022-07-30T21:19:34.206Z,99200.34
2022-07-30T21:22:20.646Z,99212.56
2022-07-30T21:25:09.469Z,99205.38
2022-07-30T21:27:56.420Z,99207.41
2022-07-30T21:30:42.927Z,99235.25
2022-07-30T21:33:31.674Z,99214.81
2022-07-30T21:36:18.701Z,99202.03
2022-07-30T21:39:13.975Z,99215.25
2022-07-30T21:42:00.848Z,99232.59
2022-07-30T21:44:50.531Z,99214.84
2022-07-30T21:47:40.028Z,99213.47
2022-07-30T21:50:34.749Z,99233.44
2022-07-30T21:53:29.406Z,99257.09
2022-07-30T21:56:28.358Z,99210.03
2022-07-30T21:59:14.672Z,99228.41
2022-07-30T22:02:01.276Z,99232.94
2022-07-30T22:04:50.497Z,99225.38
2022-07-30T22:07:36.878Z,99239.97
2022-07-30T22:10:23.510Z,99241.78
2022-07-30T22:13:11.671Z,99226.44
2022-07-30T22:15:59.894Z,99218.59
2022-07-30T22:18:46.606Z,99221.19
2022-07-30T22:21:33.277Z,99244.25
2022-07-30T22:24:30.396Z,99239.13
2022-07-30T22:27:17.943Z,99233.09
2022-07-30T22:30:13.876Z,99227.00
2022-07-30T22:33:14.273Z,99255.44
2022-07-30T22:36:01.579Z,99210.00
2022-07-30T22:38:58.644Z,99245.22
2022-07-30T22:41:45.443Z,99248.75
2022-07-30T22:44:32.057Z,99214.38
2022-07-30T22:47:21.087Z,99257.50
2022-07-30T22:50:08.729Z,99243.75
2022-07-30T22:53:01.328Z,99250.66
2022-07-30T22:56:02.089Z,99236.38
2022-07-30T22:58:48.645Z,99209.16
2022-07-30T23:01:35.990Z,99246.31
2022-07-30T23:04:27.830Z,99223.22
2022-07-30T23:10:24.856Z,99233.94
2022-07-30T23:12:30.937Z,99227.81
2022-07-30T23:13:12.674Z,99244.50
2022-07-30T23:15:58.984Z,99243.19
2022-07-30T23:18:45.389Z,99220.94
2022-07-30T23:21:33.142Z,99245.13
2022-07-30T23:24:19.735Z,99234.88
2022-07-30T23:27:06.419Z,99230.00
2022-07-30T23:29:53.592Z,99236.91
2022-07-30T23:32:40.031Z,99213.47
2022-07-30T23:35:26.575Z,99231.78
2022-07-30T23:38:13.023Z,99221.28
2022-07-30T23:41:04.258Z,99226.53
2022-07-30T23:43:50.535Z,99209.09
2022-07-30T23:46:37.232Z,99222.97
2022-07-30T23:49:24.199Z,99211.75
2022-07-30T23:52:11.393Z,99229.91
2022-07-30T23:54:58.086Z,99243.63
2022-07-30T23:57:44.559Z,99239.38
